Time;durP1;ratioP1;P1;durP2;ratioP2;P2;SDS_P1;SDS_P2;PMS_P1;PMS_P2;Temp;Humidity;BMP_temperature;BMP_pressure;BME280_temperature;BME280_humidity;BME280_pressure;Samples;Min_cycle;Max_cycle;Signal;HPM_P1;HPM_P2
2022/01/25 00:28:26;;;;;;;;;;;;;;;;;;5000183;28;19929;-60
2022/01/25 00:31:09;;;;;;;;;;;;;;;;;;4998618;28;19929;-54
2022/01/25 00:33:35;;;;;;;;;;;;;;;;;;4996105;28;20034;-57
2022/01/25 00:36:00;;;;;;;;;;;;;;;;;;4997025;28;19926;-56
2022/01/25 00:38:26;;;;;;;;;;;;;;;;;;4996504;28;20032;-56
2022/01/25 00:40:51;;;;;;;;;;;;;;;;;;4996775;28;19921;-55
2022/01/25 00:43:17;;;;;;;;;;;;;;;;;;4997745;28;20395;-56
2022/01/25 00:45:42;;;;;;;;;;;;;;;;;;4995686;28;19922;-56
2022/01/25 00:48:17;;;;;;;;;;;;;;;;;;4990086;28;19969;-57
2022/01/25 00:50:43;;;;;;;;;;;;;;;;;;4997593;28;19961;-57
2022/01/25 00:55:33;;;;;;;;;;;;;;;;;;4996060;28;19958;-57
2022/01/25 00:57:59;;;;;;;;;;;;;;;;;;4997287;28;19932;-57
2022/01/25 01:00:24;;;;;;;;;;;;;;;;;;4997706;28;19928;-56
2022/01/25 01:02:50;;;;;;;;;;;;;;;;;;4997187;28;20667;-56
2022/01/25 01:05:15;;;;;;;;;;;;;;;;;;4997721;28;20144;-56
2022/01/25 01:07:42;;;;;;;;;;;;;;;;;;4997449;28;20016;-57
2022/01/25 01:10:07;;;;;;;;;;;;;;;;;;4998637;28;19928;-56
2022/01/25 01:29:17;;;;;;;;;;;;;;;;;;4996998;28;19932;-57
2022/01/25 01:31:57;;;;;;;;;;;;;;;;;;4995520;28;19921;-57
2022/01/25 01:34:49;;;;;;;;;;;;;;;;;;4996688;28;19933;-57
2022/01/25 01:37:43;;;;;;;;;;;;;;;;;;4996577;28;20562;-55
2022/01/25 01:48:09;;;;;;;;;;;;;;;;;;5012461;28;19925;-55
2022/01/25 01:50:16;;;;;;;;;;;;;;;;;;5002710;28;19921;-57
2022/01/25 01:52:41;;;;;;;;;;;;;;;;;;4997634;28;19940;-57
2022/01/25 01:55:07;;;;;;;;;;;;;;;;;;4997576;28;19918;-55
2022/01/25 01:57:32;;;;;;;;;;;;;;;;;;4987672;28;19932;-58
2022/01/25 01:59:57;;;;;;;;;;;;;;;;;;5000622;28;19933;-58
2022/01/25 02:02:23;;;;;;;;;;;;;;;;;;5001876;28;19933;-57
2022/01/25 02:04:48;;;;;;;;;;;;;;;;;;5005012;28;19945;-58
2022/01/25 02:07:14;;;;;;;;;;;;;;;;;;5005318;28;20481;-56
2022/01/25 02:09:39;;;;;;;;;;;;;;;;;;5000752;28;19932;-58
2022/01/25 02:12:05;;;;;;;;;;;;;;;;;;5007854;28;19921;-58
2022/01/25 02:14:33;;;;;;;;;;;;;;;;;;5002313;28;19932;-56
2022/01/25 02:17:24;;;;;;;;;;;;;;;;;;4999636;28;19925;-57
2022/01/25 02:22:35;;;;;;;;;;;;;;;;;;4999235;28;19951;-57
2022/01/25 02:25:00;;;;;;;;;;;;;;;;;;4999680;28;19921;-57
2022/01/25 02:27:26;;;;;;;;;;;;;;;;;;5006399;28;19928;-55
2022/01/25 02:29:51;;;;;;;;;;;;;;;;;;4999279;28;19922;-57
2022/01/25 02:32:16;;;;;;;;;;;;;;;;;;5001006;28;20444;-55
2022/01/25 02:34:42;;;;;;;;;;;;;;;;;;5010479;28;20725;-56
2022/01/25 02:37:07;;;;;;;;;;;;;;;;;;5010740;28;19925;-55
2022/01/25 02:39:33;;;;;;;;;;;;;;;;;;5007768;28;19976;-55
2022/01/25 02:41:58;;;;;;;;;;;;;;;;;;5013592;28;19931;-56
2022/01/25 02:44:26;;;;;;;;;;;;;;;;;;5001588;28;20103;-55
2022/01/25 02:49:17;;;;;;;;;;;;;;;;;;5006445;28;19925;-57
2022/01/25 02:51:42;;;;;;;;;;;;;;;;;;5018789;28;19923;-56
2022/01/25 02:54:08;;;;;;;;;;;;;;;;;;5004175;28;19934;-56
2022/01/25 02:56:34;;;;;;;;;;;;;;;;;;4999241;28;19921;-56
2022/01/25 02:59:00;;;;;;;;;;;;;;;;;;5011784;28;19967;-58
2022/01/25 03:01:25;;;;;;;;;;;;;;;;;;5007065;28;19921;-57
2022/01/25 03:03:50;;;;;;;;;;;;;;;;;;5000660;28;20355;-58
2022/01/25 03:06:16;;;;;;;;;;;;;;;;;;5016389;28;19948;-58
2022/01/25 03:08:41;;;;;;;;;;;;;;;;;;4999522;28;19979;-58
2022/01/25 03:11:07;;;;;;;;;;;;;;;;;;5000199;28;19933;-58
2022/01/25 03:13:44;;;;;;;;;;;;;;;;;;5000638;28;19936;-57
2022/01/25 03:16:18;;;;;;;;;;;;;;;;;;4999376;28;19929;-55
2022/01/25 03:18:46;;;;;;;;;;;;;;;;;;5009849;28;20026;-54
2022/01/25 03:21:33;;;;;;;;;;;;;;;;;;5019409;28;19921;-58
2022/01/25 03:23:59;;;;;;;;;;;;;;;;;;5019267;28;19929;-56
2022/01/25 03:26:24;;;;;;;;;;;;;;;;;;5018285;28;20739;-57
2022/01/25 03:28:50;;;;;;;;;;;;;;;;;;5018372;28;19930;-58
2022/01/25 03:31:15;;;;;;;;;;;;;;;;;;5018956;28;20019;-57
2022/01/25 03:33:41;;;;;;;;;;;;;;;;;;5017158;28;20370;-57
2022/01/25 03:36:07;;;;;;;;;;;;;;;;;;5018438;28;19921;-57
2022/01/25 03:38:36;;;;;;;;;;;;;;;;;;5016023;28;20340;-57
2022/01/25 03:41:01;;;;;;;;;;;;;;;;;;5015273;28;19980;-57
2022/01/25 03:43:27;;;;;;;;;;;;;;;;;;5016474;28;19928;-58
2022/01/25 03:46:04;;;;;;;;;;;;;;;;;;5015116;28;19932;-57
2022/01/25 03:50:55;;;;;;;;;;;;;;;;;;5018540;28;19921;-58
2022/01/25 03:53:20;;;;;;;;;;;;;;;;;;5014666;28;19937;-58
2022/01/25 03:55:46;;;;;;;;;;;;;;;;;;5015986;28;19917;-57
2022/01/25 03:58:11;;;;;;;;;;;;;;;;;;5015900;28;19925;-58
2022/01/25 04:00:37;;;;;;;;;;;;;;;;;;5016020;28;20530;-57
2022/01/25 04:03:15;;;;;;;;;;;;;;;;;;5016928;28;19926;-57
2022/01/25 04:08:09;;;;;;;;;;;;;;;;;;5017528;28;19921;-57
2022/01/25 04:10:34;;;;;;;;;;;;;;;;;;5015683;28;19921;-55
2022/01/25 04:13:00;;;;;;;;;;;;;;;;;;5016120;28;19975;-57
2022/01/25 04:15:25;;;;;;;;;;;;;;;;;;5013654;28;19925;-57
2022/01/25 04:18:00;;;;;;;;;;;;;;;;;;5015570;28;20362;-57
2022/01/25 04:20:31;;;;;;;;;;;;;;;;;;5014936;28;20051;-57
2022/01/25 04:25:40;;;;;;;;;;;;;;;;;;5013705;28;19923;-56
2022/01/25 04:28:06;;;;;;;;;;;;;;;;;;5013560;28;19924;-57
2022/01/25 04:30:31;;;;;;;;;;;;;;;;;;5015886;28;19924;-58
2022/01/25 04:33:04;;;;;;;;;;;;;;;;;;5016851;28;19929;-57
2022/01/25 04:49:02;;;;;;;;;;;;;;;;;;5013895;28;19931;-56
2022/01/25 04:51:42;;;;;;;;;;;;;;;;;;5014275;28;19935;-58
2022/01/25 04:54:23;;;;;;;;;;;;;;;;;;5016235;28;19940;-58
2022/01/25 05:02:07;;;;;;;;;;;;;;;;;;5014624;28;20426;-58
2022/01/25 05:04:38;;;;;;;;;;;;;;;;;;5014810;28;19924;-57
2022/01/25 05:09:59;;;;;;;;;;;;;;;;;;5013456;28;19980;-58
2022/01/25 05:15:18;;;;;;;;;;;;;;;;;;5017424;28;20397;-58
2022/01/25 05:17:46;;;;;;;;;;;;;;;;;;5015431;28;20385;-60
2022/01/25 05:22:56;;;;;;;;;;;;;;;;;;5015125;28;19936;-60
2022/01/25 05:25:21;;;;;;;;;;;;;;;;;;5013936;28;19925;-61
2022/01/25 05:27:47;;;;;;;;;;;;;;;;;;5014973;28;19925;-59
2022/01/25 05:30:12;;;;;;;;;;;;;;;;;;5015271;28;19921;-60
2022/01/25 05:32:37;;;;;;;;;;;;;;;;;;5013635;28;19940;-60
2022/01/25 05:35:03;;;;;;;;;;;;;;;;;;5017899;28;19921;-60
2022/01/25 05:37:29;;;;;;;;;;;;;;;;;;5018899;28;19925;-60
2022/01/25 05:39:54;;;;;;;;;;;;;;;;;;5020466;28;19917;-60
2022/01/25 05:45:19;;;;;;;;;;;;;;;;;;5026825;28;19925;-59
2022/01/25 05:47:44;;;;;;;;;;;;;;;;;;5018807;28;19947;-60
2022/01/25 05:50:12;;;;;;;;;;;;;;;;;;5019327;28;20682;-61
2022/01/25 05:52:37;;;;;;;;;;;;;;;;;;5019753;28;19936;-59
2022/01/25 05:55:03;;;;;;;;;;;;;;;;;;5019270;28;19926;-59
2022/01/25 05:57:28;;;;;;;;;;;;;;;;;;5018391;28;19925;-59
2022/01/25 05:59:54;;;;;;;;;;;;;;;;;;5020478;28;19956;-59
2022/01/25 06:02:21;;;;;;;;;;;;;;;;;;5018798;28;19952;-59
2022/01/25 06:04:47;;;;;;;;;;;;;;;;;;5020620;28;19920;-59
2022/01/25 06:07:12;;;;;;;;;;;;;;;;;;5019459;28;19931;-59
2022/01/25 06:09:39;;;;;;;;;;;;;;;;;;5020555;28;20321;-59
2022/01/25 06:12:05;;;;;;;;;;;;;;;;;;5020705;28;19925;-59
2022/01/25 06:14:30;;;;;;;;;;;;;;;;;;5019669;28;19929;-59
2022/01/25 06:16:56;;;;;;;;;;;;;;;;;;5021310;28;19943;-59
2022/01/25 06:19:21;;;;;;;;;;;;;;;;;;5021612;28;20463;-59
2022/01/25 06:21:47;;;;;;;;;;;;;;;;;;5024778;28;20346;-59
2022/01/25 06:24:12;;;;;;;;;;;;;;;;;;5024187;28;19933;-59
2022/01/25 06:26:37;;;;;;;;;;;;;;;;;;5019406;28;20041;-59
2022/01/25 06:29:03;;;;;;;;;;;;;;;;;;5019193;28;19921;-57
2022/01/25 06:31:30;;;;;;;;;;;;;;;;;;5020925;28;19925;-59
2022/01/25 06:33:56;;;;;;;;;;;;;;;;;;5020972;28;20376;-60
2022/01/25 06:36:21;;;;;;;;;;;;;;;;;;5020026;28;19963;-59
2022/01/25 06:38:47;;;;;;;;;;;;;;;;;;5028568;28;20271;-59
2022/01/25 06:41:14;;;;;;;;;;;;;;;;;;5029445;28;19956;-59
2022/01/25 06:43:39;;;;;;;;;;;;;;;;;;5029053;28;19995;-59
2022/01/25 06:46:05;;;;;;;;;;;;;;;;;;5029248;28;20382;-59
2022/01/25 06:48:30;;;;;;;;;;;;;;;;;;5030164;28;19921;-59
2022/01/25 06:50:56;;;;;;;;;;;;;;;;;;5024416;28;19959;-58
2022/01/25 06:53:21;;;;;;;;;;;;;;;;;;5020963;28;19928;-59
2022/01/25 06:55:47;;;;;;;;;;;;;;;;;;5020101;28;20239;-57
2022/01/25 06:58:12;;;;;;;;;;;;;;;;;;5014987;28;19932;-59
2022/01/25 07:00:38;;;;;;;;;;;;;;;;;;5018423;28;20382;-59
2022/01/25 07:03:03;;;;;;;;;;;;;;;;;;5019827;28;20365;-59
2022/01/25 07:05:28;;;;;;;;;;;;;;;;;;5018202;28;19932;-59
2022/01/25 07:07:54;;;;;;;;;;;;;;;;;;5019335;28;19971;-59
2022/01/25 07:10:19;;;;;;;;;;;;;;;;;;5018844;28;20393;-58
2022/01/25 07:12:45;;;;;;;;;;;;;;;;;;5018771;28;19995;-60
2022/01/25 07:15:11;;;;;;;;;;;;;;;;;;5019210;28;20796;-59
2022/01/25 07:17:36;;;;;;;;;;;;;;;;;;5016925;28;20602;-60
2022/01/25 07:20:02;;;;;;;;;;;;;;;;;;5018743;28;19924;-58
2022/01/25 07:22:27;;;;;;;;;;;;;;;;;;5017518;28;20118;-58
2022/01/25 07:24:52;;;;;;;;;;;;;;;;;;5016415;28;19929;-59
2022/01/25 07:27:18;;;;;;;;;;;;;;;;;;5017174;28;19925;-59
2022/01/25 07:29:43;;;;;;;;;;;;;;;;;;5020291;28;20019;-59
2022/01/25 07:32:09;;;;;;;;;;;;;;;;;;5017529;28;19945;-58
2022/01/25 07:34:34;;;;;;;;;;;;;;;;;;5017340;28;19985;-59
2022/01/25 07:36:59;;;;;;;;;;;;;;;;;;5017844;28;19948;-59
2022/01/25 07:39:26;;;;;;;;;;;;;;;;;;5016882;28;19944;-59
2022/01/25 07:41:56;;;;;;;;;;;;;;;;;;5018148;28;19918;-59
2022/01/25 07:44:26;;;;;;;;;;;;;;;;;;5017508;28;20266;-58
2022/01/25 07:46:52;;;;;;;;;;;;;;;;;;5018028;28;19921;-59
2022/01/25 07:49:17;;;;;;;;;;;;;;;;;;5019256;28;20857;-58
2022/01/25 07:51:42;;;;;;;;;;;;;;;;;;5017758;28;19921;-59
2022/01/25 07:54:08;;;;;;;;;;;;;;;;;;5017643;28;19944;-58
2022/01/25 07:56:33;;;;;;;;;;;;;;;;;;5016647;28;19921;-58
2022/01/25 07:58:59;;;;;;;;;;;;;;;;;;5018202;28;19925;-58
2022/01/25 08:01:26;;;;;;;;;;;;;;;;;;5017179;28;19975;-59
2022/01/25 08:03:52;;;;;;;;;;;;;;;;;;5016708;28;19925;-57
2022/01/25 08:06:17;;;;;;;;;;;;;;;;;;5017116;28;20353;-59
2022/01/25 08:08:43;;;;;;;;;;;;;;;;;;5016741;28;19927;-59
2022/01/25 08:11:08;;;;;;;;;;;;;;;;;;5018211;28;19931;-58
2022/01/25 08:13:37;;;;;;;;;;;;;;;;;;5016812;28;19926;-59
2022/01/25 08:16:02;;;;;;;;;;;;;;;;;;5016394;28;19920;-58
2022/01/25 08:18:27;;;;;;;;;;;;;;;;;;5017296;28;19935;-58
2022/01/25 08:20:53;;;;;;;;;;;;;;;;;;5018036;28;19925;-59
2022/01/25 08:23:18;;;;;;;;;;;;;;;;;;5015628;28;20071;-58
2022/01/25 08:25:44;;;;;;;;;;;;;;;;;;5017610;28;19928;-58
2022/01/25 08:28:09;;;;;;;;;;;;;;;;;;5018832;28;19928;-58
2022/01/25 08:30:35;;;;;;;;;;;;;;;;;;5017985;28;19932;-57
2022/01/25 08:33:00;;;;;;;;;;;;;;;;;;5017116;28;19941;-57
2022/01/25 08:35:25;;;;;;;;;;;;;;;;;;5016646;28;19925;-58
2022/01/25 08:37:51;;;;;;;;;;;;;;;;;;5017083;28;19921;-58
2022/01/25 08:40:16;;;;;;;;;;;;;;;;;;5016994;28;19921;-57
2022/01/25 08:42:42;;;;;;;;;;;;;;;;;;5016471;28;19991;-58
2022/01/25 08:45:07;;;;;;;;;;;;;;;;;;5016160;28;20413;-57
2022/01/25 08:47:33;;;;;;;;;;;;;;;;;;5012692;28;19921;-58
2022/01/25 08:49:58;;;;;;;;;;;;;;;;;;5016614;28;19983;-58
2022/01/25 08:52:23;;;;;;;;;;;;;;;;;;5016927;28;19968;-59
2022/01/25 08:54:49;;;;;;;;;;;;;;;;;;5017054;28;19929;-58
2022/01/25 08:57:14;;;;;;;;;;;;;;;;;;5017838;28;19925;-59
2022/01/25 08:59:40;;;;;;;;;;;;;;;;;;5016350;28;20016;-58
2022/01/25 09:02:05;;;;;;;;;;;;;;;;;;5016760;28;20016;-58
2022/01/25 09:04:31;;;;;;;;;;;;;;;;;;5016455;28;19924;-58
2022/01/25 09:06:56;;;;;;;;;;;;;;;;;;5016496;28;19925;-58
2022/01/25 09:09:21;;;;;;;;;;;;;;;;;;5015881;28;19932;-59
2022/01/25 09:11:47;;;;;;;;;;;;;;;;;;5018056;28;19940;-58
2022/01/25 09:14:12;;;;;;;;;;;;;;;;;;5015938;28;20037;-58
2022/01/25 09:16:38;;;;;;;;;;;;;;;;;;5017115;28;19968;-58
2022/01/25 09:19:03;;;;;;;;;;;;;;;;;;5020750;28;19953;-59
2022/01/25 09:21:29;;;;;;;;;;;;;;;;;;5021911;28;20378;-60
2022/01/25 09:23:54;;;;;;;;;;;;;;;;;;5021155;28;19933;-59
2022/01/25 09:26:20;;;;;;;;;;;;;;;;;;5017747;28;19921;-58
2022/01/25 09:28:45;;;;;;;;;;;;;;;;;;5017529;28;19925;-58
2022/01/25 09:31:11;;;;;;;;;;;;;;;;;;5016409;28;19927;-59
2022/01/25 09:33:36;;;;;;;;;;;;;;;;;;5014853;28;20040;-58
2022/01/25 09:36:02;;;;;;;;;;;;;;;;;;5016642;28;20390;-58
2022/01/25 09:38:27;;;;;;;;;;;;;;;;;;5016191;28;20614;-59
2022/01/25 09:40:52;;;;;;;;;;;;;;;;;;5017457;28;19987;-59
2022/01/25 09:43:20;;;;;;;;;;;;;;;;;;5016496;28;19925;-59
2022/01/25 09:45:45;;;;;;;;;;;;;;;;;;5016736;28;19952;-59
2022/01/25 09:48:10;;;;;;;;;;;;;;;;;;5015743;28;20020;-59
2022/01/25 09:50:36;;;;;;;;;;;;;;;;;;5018552;28;20849;-59
2022/01/25 09:53:02;;;;;;;;;;;;;;;;;;5020914;28;20425;-60
2022/01/25 09:55:28;;;;;;;;;;;;;;;;;;5013814;28;20373;-59
2022/01/25 09:57:53;;;;;;;;;;;;;;;;;;5016857;28;19986;-59
2022/01/25 10:00:19;;;;;;;;;;;;;;;;;;5016663;28;19946;-59
2022/01/25 10:02:51;;;;;;;;;;;;;;;;;;5024352;28;19921;-59
2022/01/25 10:05:17;;;;;;;;;;;;;;;;;;5017329;28;20473;-59
2022/01/25 10:07:42;;;;;;;;;;;;;;;;;;5016390;28;19952;-58
2022/01/25 10:10:08;;;;;;;;;;;;;;;;;;5018465;28;19921;-58
2022/01/25 10:12:33;;;;;;;;;;;;;;;;;;5017776;28;20032;-59
2022/01/25 10:14:59;;;;;;;;;;;;;;;;;;5019572;28;19956;-60
2022/01/25 10:17:24;;;;;;;;;;;;;;;;;;5031729;28;19928;-60
2022/01/25 10:19:49;;;;;;;;;;;;;;;;;;5023429;28;19925;-60
2022/01/25 10:22:15;;;;;;;;;;;;;;;;;;5023360;28;20007;-59
2022/01/25 10:24:40;;;;;;;;;;;;;;;;;;5021291;28;20484;-58
2022/01/25 10:27:08;;;;;;;;;;;;;;;;;;5019984;28;19975;-59
2022/01/25 10:29:34;;;;;;;;;;;;;;;;;;5019489;28;20421;-58
2022/01/25 10:32:00;;;;;;;;;;;;;;;;;;5021182;28;20374;-59
2022/01/25 10:34:25;;;;;;;;;;;;;;;;;;5018935;28;19940;-57
2022/01/25 10:36:51;;;;;;;;;;;;;;;;;;5019219;28;20350;-58
2022/01/25 10:39:16;;;;;;;;;;;;;;;;;;5019488;28;19925;-59
2022/01/25 10:41:42;;;;;;;;;;;;;;;;;;5019389;28;19921;-59
2022/01/25 10:44:07;;;;;;;;;;;;;;;;;;5019932;28;19933;-58
2022/01/25 10:46:33;;;;;;;;;;;;;;;;;;5018118;28;19917;-58
2022/01/25 10:48:58;;;;;;;;;;;;;;;;;;5019407;28;19940;-58
2022/01/25 10:51:24;;;;;;;;;;;;;;;;;;5018142;28;19921;-59
2022/01/25 10:53:49;;;;;;;;;;;;;;;;;;5019526;28;20694;-59
2022/01/25 10:56:15;;;;;;;;;;;;;;;;;;5018748;28;19925;-59
2022/01/25 10:58:40;;;;;;;;;;;;;;;;;;5017022;28;19932;-59
2022/01/25 11:01:06;;;;;;;;;;;;;;;;;;5018783;28;20389;-59
2022/01/25 11:03:32;;;;;;;;;;;;;;;;;;5018950;28;20378;-58
2022/01/25 11:05:57;;;;;;;;;;;;;;;;;;5018703;28;20830;-57
2022/01/25 11:08:23;;;;;;;;;;;;;;;;;;5019059;28;19921;-59
2022/01/25 11:11:00;;;;;;;;;;;;;;;;;;5019225;28;19951;-58
2022/01/25 11:15:54;;;;;;;;;;;;;;;;;;5018647;28;19932;-58
2022/01/25 11:18:20;;;;;;;;;;;;;;;;;;5018578;28;19921;-58
2022/01/25 11:20:45;;;;;;;;;;;;;;;;;;5018972;28;19921;-59
2022/01/25 11:23:11;;;;;;;;;;;;;;;;;;5019682;28;19929;-59
2022/01/25 11:25:36;;;;;;;;;;;;;;;;;;5017845;28;19921;-59
2022/01/25 11:28:02;;;;;;;;;;;;;;;;;;5013094;28;19921;-58
2022/01/25 11:30:27;;;;;;;;;;;;;;;;;;5018283;28;20324;-59
2022/01/25 11:32:52;;;;;;;;;;;;;;;;;;5017651;28;19957;-58
2022/01/25 11:35:19;;;;;;;;;;;;;;;;;;5018368;28;20485;-59
2022/01/25 11:37:45;;;;;;;;;;;;;;;;;;5019736;28;19970;-57
2022/01/25 11:40:10;;;;;;;;;;;;;;;;;;5020734;28;19925;-57
2022/01/25 11:42:39;;;;;;;;;;;;;;;;;;5018683;28;20494;-57
2022/01/25 11:45:06;;;;;;;;;;;;;;;;;;5018407;28;20017;-58
2022/01/25 11:47:31;;;;;;;;;;;;;;;;;;5017594;28;19921;-58
2022/01/25 11:49:57;;;;;;;;;;;;;;;;;;5018930;28;19948;-58
2022/01/25 11:52:22;;;;;;;;;;;;;;;;;;5018666;28;20012;-55
2022/01/25 11:54:48;;;;;;;;;;;;;;;;;;5012628;28;19930;-58
2022/01/25 11:57:13;;;;;;;;;;;;;;;;;;5018334;28;19982;-58
2022/01/25 11:59:39;;;;;;;;;;;;;;;;;;5018044;28;19964;-58
2022/01/25 12:02:04;;;;;;;;;;;;;;;;;;5017963;28;20007;-59
2022/01/25 12:04:30;;;;;;;;;;;;;;;;;;5017635;28;20136;-59
2022/01/25 12:07:11;;;;;;;;;;;;;;;;;;5016888;28;19921;-57
2022/01/25 12:09:50;;;;;;;;;;;;;;;;;;5017952;28;19975;-59
2022/01/25 12:12:16;;;;;;;;;;;;;;;;;;5018466;28;19925;-59
2022/01/25 12:14:43;;;;;;;;;;;;;;;;;;5018116;28;19937;-59
2022/01/25 12:17:09;;;;;;;;;;;;;;;;;;5017112;28;19975;-59
2022/01/25 12:19:34;;;;;;;;;;;;;;;;;;5016894;28;20470;-59
2022/01/25 12:22:00;;;;;;;;;;;;;;;;;;5018617;28;19925;-60
2022/01/25 12:24:30;;;;;;;;;;;;;;;;;;5016703;28;19936;-59
2022/01/25 12:27:00;;;;;;;;;;;;;;;;;;5017557;28;20264;-60
2022/01/25 12:29:26;;;;;;;;;;;;;;;;;;5017783;28;19921;-59
2022/01/25 12:31:51;;;;;;;;;;;;;;;;;;5016638;28;19925;-58
2022/01/25 12:34:16;;;;;;;;;;;;;;;;;;5016090;28;19955;-58
2022/01/25 12:36:43;;;;;;;;;;;;;;;;;;5016788;28;19928;-59
2022/01/25 12:39:11;;;;;;;;;;;;;;;;;;5018815;28;20010;-59
2022/01/25 12:41:36;;;;;;;;;;;;;;;;;;5017047;28;19983;-59
2022/01/25 12:44:01;;;;;;;;;;;;;;;;;;5019504;28;20453;-59
2022/01/25 12:46:27;;;;;;;;;;;;;;;;;;5019099;28;20096;-59
2022/01/25 12:48:52;;;;;;;;;;;;;;;;;;5028060;28;19928;-59
2022/01/25 12:51:18;;;;;;;;;;;;;;;;;;5020107;28;19974;-59
2022/01/25 12:53:43;;;;;;;;;;;;;;;;;;5017216;28;19947;-59
2022/01/25 12:56:10;;;;;;;;;;;;;;;;;;5016642;28;19944;-59
2022/01/25 12:58:35;;;;;;;;;;;;;;;;;;5015457;28;19925;-59
2022/01/25 13:01:01;;;;;;;;;;;;;;;;;;5016948;28;19928;-59
2022/01/25 13:03:27;;;;;;;;;;;;;;;;;;5018304;28;19925;-56
2022/01/25 13:05:53;;;;;;;;;;;;;;;;;;5016798;28;19928;-59
2022/01/25 13:08:18;;;;;;;;;;;;;;;;;;5016320;28;19925;-59
2022/01/25 13:10:44;;;;;;;;;;;;;;;;;;5015295;28;19957;-57
2022/01/25 13:13:15;;;;;;;;;;;;;;;;;;5016915;28;19933;-58
2022/01/25 13:18:09;;;;;;;;;;;;;;;;;;5016770;28;20547;-59
2022/01/25 13:20:34;;;;;;;;;;;;;;;;;;5015364;28;19932;-58
2022/01/25 13:23:00;;;;;;;;;;;;;;;;;;5014376;28;19921;-59
2022/01/25 13:25:34;;;;;;;;;;;;;;;;;;5014564;28;19925;-58
2022/01/25 13:28:09;;;;;;;;;;;;;;;;;;5015507;28;20451;-58
2022/01/25 13:30:41;;;;;;;;;;;;;;;;;;5013014;28;19925;-57
2022/01/25 13:33:07;;;;;;;;;;;;;;;;;;5014778;28;19932;-57
2022/01/25 13:35:34;;;;;;;;;;;;;;;;;;5014048;28;19921;-58
2022/01/25 13:38:00;;;;;;;;;;;;;;;;;;5016252;28;19994;-57
2022/01/25 13:40:33;;;;;;;;;;;;;;;;;;5016186;28;20397;-58
2022/01/25 13:43:29;;;;;;;;;;;;;;;;;;5015704;28;19929;-57
2022/01/25 13:45:46;;;;;;;;;;;;;;;;;;5016031;28;19925;-54
2022/01/25 13:48:12;;;;;;;;;;;;;;;;;;5017486;28;19996;-59
2022/01/25 13:50:37;;;;;;;;;;;;;;;;;;5015505;28;19944;-58
2022/01/25 13:53:03;;;;;;;;;;;;;;;;;;5017669;28;20040;-57
2022/01/25 13:55:28;;;;;;;;;;;;;;;;;;5016810;28;19925;-57
2022/01/25 13:57:54;;;;;;;;;;;;;;;;;;5020895;28;19925;-58
2022/01/25 14:00:20;;;;;;;;;;;;;;;;;;5015740;28;19925;-57
2022/01/25 14:02:45;;;;;;;;;;;;;;;;;;5023467;28;20759;-57
2022/01/25 14:05:10;;;;;;;;;;;;;;;;;;5021821;28;19921;-55
2022/01/25 14:07:36;;;;;;;;;;;;;;;;;;5020977;28;19925;-57
2022/01/25 14:10:02;;;;;;;;;;;;;;;;;;5020212;28;20297;-57
2022/01/25 14:23:27;;;;;;;;;;;;;;;;;;5019818;28;19941;-57
2022/01/25 14:25:52;;;;;;;;;;;;;;;;;;5019838;28;19925;-58
2022/01/25 14:28:19;;;;;;;;;;;;;;;;;;5020295;28;19955;-57
2022/01/25 14:30:45;;;;;;;;;;;;;;;;;;5020436;28;19964;-54
2022/01/25 14:33:14;;;;;;;;;;;;;;;;;;5014793;28;20047;-56
2022/01/25 14:35:40;;;;;;;;;;;;;;;;;;5019875;28;19928;-56
2022/01/25 14:38:05;;;;;;;;;;;;;;;;;;5020520;28;19929;-56
2022/01/25 14:40:31;;;;;;;;;;;;;;;;;;5019514;28;19925;-57
2022/01/25 14:42:56;;;;;;;;;;;;;;;;;;5019778;28;20386;-56
2022/01/25 14:45:22;;;;;;;;;;;;;;;;;;5019692;28;19921;-56
2022/01/25 14:47:48;;;;;;;;;;;;;;;;;;5021182;28;19987;-55
2022/01/25 14:50:14;;;;;;;;;;;;;;;;;;5020718;28;19991;-57
2022/01/25 14:52:39;;;;;;;;;;;;;;;;;;5012977;28;19925;-56
2022/01/25 14:55:04;;;;;;;;;;;;;;;;;;5020068;28;19921;-57
2022/01/25 14:57:40;;;;;;;;;;;;;;;;;;5017712;28;19921;-54
2022/01/25 15:00:05;;;;;;;;;;;;;;;;;;5020976;28;20012;-56
2022/01/25 15:02:30;;;;;;;;;;;;;;;;;;5018959;28;20591;-56
2022/01/25 15:04:58;;;;;;;;;;;;;;;;;;5019078;28;19932;-56
2022/01/25 15:07:23;;;;;;;;;;;;;;;;;;5019169;28;19917;-56
2022/01/25 15:10:00;;;;;;;;;;;;;;;;;;5026412;28;19928;-56
2022/01/25 15:12:28;;;;;;;;;;;;;;;;;;5018359;28;20038;-55
2022/01/25 15:15:02;;;;;;;;;;;;;;;;;;5027417;28;19984;-55
2022/01/25 15:17:28;;;;;;;;;;;;;;;;;;5018357;28;20458;-56
2022/01/25 15:19:53;;;;;;;;;;;;;;;;;;5019837;28;19996;-55
2022/01/25 15:22:19;;;;;;;;;;;;;;;;;;5018095;28;20408;-54
2022/01/25 15:24:46;;;;;;;;;;;;;;;;;;5018384;28;19933;-53
2022/01/25 15:27:13;;;;;;;;;;;;;;;;;;5019530;28;19975;-56
2022/01/25 15:29:38;;;;;;;;;;;;;;;;;;5011771;28;20606;-56
2022/01/25 15:32:04;;;;;;;;;;;;;;;;;;5019810;28;19924;-56
2022/01/25 15:34:32;;;;;;;;;;;;;;;;;;5037253;28;19929;-55
2022/01/25 15:36:58;;;;;;;;;;;;;;;;;;5017606;28;20465;-54
2022/01/25 15:39:23;;;;;;;;;;;;;;;;;;5017757;28;19922;-56
2022/01/25 15:41:51;;;;;;;;;;;;;;;;;;5017970;28;19925;-54
2022/01/25 15:44:19;;;;;;;;;;;;;;;;;;5019326;28;19931;-56
2022/01/25 15:49:16;;;;;;;;;;;;;;;;;;5017853;28;20404;-56
2022/01/25 15:51:41;;;;;;;;;;;;;;;;;;5011578;28;19925;-56
2022/01/25 15:54:07;;;;;;;;;;;;;;;;;;5019005;28;20047;-56
2022/01/25 15:56:32;;;;;;;;;;;;;;;;;;5020209;28;20009;-56
2022/01/25 15:58:57;;;;;;;;;;;;;;;;;;5021384;28;19925;-56
2022/01/25 16:01:23;;;;;;;;;;;;;;;;;;5023438;28;20015;-56
2022/01/25 16:03:48;;;;;;;;;;;;;;;;;;5029142;28;19921;-56
2022/01/25 16:06:14;;;;;;;;;;;;;;;;;;5027117;28;19921;-56
2022/01/25 16:08:39;;;;;;;;;;;;;;;;;;5017309;28;19921;-57
2022/01/25 16:11:13;;;;;;;;;;;;;;;;;;5018903;28;19921;-57
2022/01/25 16:13:38;;;;;;;;;;;;;;;;;;5016777;28;19929;-57
2022/01/25 16:16:03;;;;;;;;;;;;;;;;;;5017309;28;19925;-57
2022/01/25 16:18:29;;;;;;;;;;;;;;;;;;5016134;28;19921;-56
2022/01/25 16:20:55;;;;;;;;;;;;;;;;;;5017300;28;19926;-55
2022/01/25 16:23:20;;;;;;;;;;;;;;;;;;5018125;28;19975;-57
2022/01/25 16:25:46;;;;;;;;;;;;;;;;;;5018712;28;20313;-55
2022/01/25 16:28:11;;;;;;;;;;;;;;;;;;5017574;28;19921;-57
2022/01/25 16:30:37;;;;;;;;;;;;;;;;;;5016782;28;19932;-56
2022/01/25 16:33:02;;;;;;;;;;;;;;;;;;5018438;28;19933;-57
2022/01/25 16:35:27;;;;;;;;;;;;;;;;;;5016912;28;20507;-56
2022/01/25 16:37:53;;;;;;;;;;;;;;;;;;5016909;28;20008;-55
2022/01/25 16:40:19;;;;;;;;;;;;;;;;;;5016193;28;19952;-57
2022/01/25 16:42:45;;;;;;;;;;;;;;;;;;5015965;28;20047;-56
2022/01/25 16:45:10;;;;;;;;;;;;;;;;;;5017420;28;19929;-56
2022/01/25 16:47:36;;;;;;;;;;;;;;;;;;5016079;28;19925;-56
2022/01/25 16:50:02;;;;;;;;;;;;;;;;;;5018204;28;19928;-53
2022/01/25 16:52:27;;;;;;;;;;;;;;;;;;5015506;28;19921;-57
2022/01/25 16:54:52;;;;;;;;;;;;;;;;;;5018061;28;20015;-57
2022/01/25 16:57:18;;;;;;;;;;;;;;;;;;5016446;28;19925;-56
2022/01/25 16:59:43;;;;;;;;;;;;;;;;;;5018341;28;19921;-57
2022/01/25 17:02:12;;;;;;;;;;;;;;;;;;5024860;28;20063;-56
2022/01/25 17:04:37;;;;;;;;;;;;;;;;;;5015899;28;20012;-56
2022/01/25 17:07:02;;;;;;;;;;;;;;;;;;5017851;28;19986;-56
2022/01/25 17:09:28;;;;;;;;;;;;;;;;;;5016865;28;20063;-56
2022/01/25 17:11:54;;;;;;;;;;;;;;;;;;5016460;28;20214;-56
2022/01/25 17:14:20;;;;;;;;;;;;;;;;;;5024194;28;19928;-56
2022/01/25 17:16:45;;;;;;;;;;;;;;;;;;5017595;28;20459;-57
2022/01/25 17:19:13;;;;;;;;;;;;;;;;;;5018489;28;20194;-57
2022/01/25 17:21:38;;;;;;;;;;;;;;;;;;5017345;28;19987;-54
2022/01/25 17:24:04;;;;;;;;;;;;;;;;;;5018843;28;20429;-55
2022/01/25 17:26:30;;;;;;;;;;;;;;;;;;5017209;28;19975;-56
2022/01/25 17:28:55;;;;;;;;;;;;;;;;;;5017480;28;19926;-56
2022/01/25 17:31:21;;;;;;;;;;;;;;;;;;5018884;28;19946;-57
2022/01/25 17:33:46;;;;;;;;;;;;;;;;;;5022016;28;19941;-57
2022/01/25 17:36:11;;;;;;;;;;;;;;;;;;5009664;28;19918;-58
2022/01/25 17:38:37;;;;;;;;;;;;;;;;;;5002504;28;19925;-54
2022/01/25 17:41:04;;;;;;;;;;;;;;;;;;5011241;28;19922;-56
2022/01/25 17:43:29;;;;;;;;;;;;;;;;;;5004178;28;20678;-57
2022/01/25 17:45:55;;;;;;;;;;;;;;;;;;5004552;28;19928;-56
2022/01/25 17:48:21;;;;;;;;;;;;;;;;;;5003536;28;19925;-57
2022/01/25 17:50:46;;;;;;;;;;;;;;;;;;5004243;28;19921;-57
2022/01/25 17:53:12;;;;;;;;;;;;;;;;;;5003152;28;19956;-56
2022/01/25 17:55:37;;;;;;;;;;;;;;;;;;5007162;28;19921;-57
2022/01/25 17:58:03;;;;;;;;;;;;;;;;;;5021351;28;19925;-58
2022/01/25 18:00:28;;;;;;;;;;;;;;;;;;5015875;28;20040;-57
2022/01/25 18:02:53;;;;;;;;;;;;;;;;;;5020769;28;19932;-58
2022/01/25 18:05:19;;;;;;;;;;;;;;;;;;5021624;28;19967;-56
2022/01/25 18:07:44;;;;;;;;;;;;;;;;;;5005243;28;20615;-58
2022/01/25 18:10:10;;;;;;;;;;;;;;;;;;5004230;28;20020;-58
2022/01/25 18:12:35;;;;;;;;;;;;;;;;;;5002228;28;20333;-56
2022/01/25 18:15:01;;;;;;;;;;;;;;;;;;5000695;28;19933;-56
2022/01/25 18:17:26;;;;;;;;;;;;;;;;;;5008506;28;20000;-57
2022/01/25 18:19:52;;;;;;;;;;;;;;;;;;5000355;28;20022;-56
2022/01/25 18:22:27;;;;;;;;;;;;;;;;;;4998546;28;19949;-56
2022/01/25 18:27:44;;;;;;;;;;;;;;;;;;4995347;28;19925;-57
2022/01/25 18:30:09;;;;;;;;;;;;;;;;;;4997254;28;19929;-55
2022/01/25 18:32:35;;;;;;;;;;;;;;;;;;4997874;28;20172;-57
2022/01/25 18:35:00;;;;;;;;;;;;;;;;;;4997419;28;19933;-57
2022/01/25 18:37:26;;;;;;;;;;;;;;;;;;4998738;28;19921;-58
2022/01/25 18:39:51;;;;;;;;;;;;;;;;;;5003754;28;20400;-54